createdAt,value
2017-12-16T00:00:08.733Z,16.43
2017-12-16T00:02:34.529Z,10.00
2017-12-16T00:05:00.363Z,15.10
2017-12-16T00:07:26.155Z,18.67
2017-12-16T00:09:51.962Z,15.33
2017-12-16T00:12:17.799Z,17.27
2017-12-16T00:14:43.617Z,17.07
2017-12-16T00:17:09.415Z,17.50
2017-12-16T00:19:35.236Z,19.07
2017-12-16T00:22:01.090Z,15.17
2017-12-16T00:24:26.864Z,10.67
2017-12-16T00:26:52.937Z,17.77
2017-12-16T00:29:19.696Z,12.88
2017-12-16T00:31:45.498Z,7.77
2017-12-16T00:34:11.311Z,13.90
2017-12-16T00:36:37.094Z,11.90
2017-12-16T00:39:02.914Z,11.77
2017-12-16T00:41:28.956Z,14.50
2017-12-16T00:43:54.753Z,16.15
2017-12-16T00:46:20.556Z,15.20
2017-12-16T00:48:46.380Z,11.13
2017-12-16T00:51:12.208Z,11.07
2017-12-16T00:53:38.005Z,8.03
2017-12-16T00:56:03.827Z,13.30
2017-12-16T00:58:29.627Z,6.67
2017-12-16T01:00:55.429Z,9.50
2017-12-16T01:03:21.227Z,8.27
2017-12-16T01:05:47.022Z,12.20
2017-12-16T01:08:12.855Z,8.87
2017-12-16T01:10:38.691Z,7.97
2017-12-16T01:13:04.487Z,9.47
2017-12-16T01:15:30.291Z,12.00
2017-12-16T01:17:56.134Z,17.27
2017-12-16T01:20:21.951Z,13.60
2017-12-16T01:22:47.760Z,7.83
2017-12-16T01:25:13.562Z,17.03
2017-12-16T01:27:39.368Z,7.10
2017-12-16T01:30:05.162Z,11.40
2017-12-16T01:32:31.867Z,10.57
2017-12-16T01:35:10.171Z,15.52
2017-12-16T01:37:49.706Z,14.37
2017-12-16T01:40:15.508Z,13.10
2017-12-16T01:42:41.450Z,10.73
2017-12-16T01:45:07.292Z,17.30
2017-12-16T01:47:33.104Z,21.50
2017-12-16T01:49:58.911Z,18.23
2017-12-16T01:52:25.536Z,17.60
2017-12-16T01:54:51.337Z,17.27
2017-12-16T01:57:17.135Z,16.40
2017-12-16T01:59:42.951Z,9.20
2017-12-16T02:02:08.744Z,13.10
2017-12-16T02:04:34.576Z,12.90
2017-12-16T02:07:01.262Z,12.70
2017-12-16T02:09:27.068Z,17.92
2017-12-16T02:11:52.862Z,10.70
2017-12-16T02:14:18.703Z,15.30
2017-12-16T02:16:44.534Z,11.60
2017-12-16T02:19:10.343Z,15.90
2017-12-16T02:21:36.180Z,16.47
2017-12-16T02:24:01.996Z,13.97
2017-12-16T02:26:27.807Z,18.10
2017-12-16T02:28:53.687Z,16.83
2017-12-16T02:31:19.505Z,17.57
2017-12-16T02:33:45.323Z,9.03
2017-12-16T02:36:12.203Z,13.60
2017-12-16T02:38:38.028Z,14.18
2017-12-16T02:41:03.836Z,12.90
2017-12-16T02:43:30.276Z,9.93
2017-12-16T02:45:56.083Z,10.45
2017-12-16T02:48:21.902Z,19.93
2017-12-16T02:50:47.756Z,14.83
2017-12-16T02:53:13.591Z,14.47
2017-12-16T02:55:39.403Z,16.90
2017-12-16T02:58:05.273Z,14.80
2017-12-16T03:00:31.108Z,9.93
2017-12-16T03:02:56.932Z,18.37
2017-12-16T03:05:23.051Z,17.77
2017-12-16T03:07:48.851Z,17.37
2017-12-16T03:10:14.651Z,12.63
2017-12-16T03:12:40.476Z,19.43
2017-12-16T03:15:06.329Z,14.97
2017-12-16T03:17:32.151Z,22.40
2017-12-16T03:19:58.165Z,20.30
2017-12-16T03:22:23.992Z,15.07
2017-12-16T03:24:49.819Z,16.83
2017-12-16T03:27:15.930Z,18.10
2017-12-16T03:29:41.746Z,14.48
2017-12-16T03:32:07.560Z,17.37
2017-12-16T03:34:33.399Z,19.77
2017-12-16T03:36:59.254Z,16.80
2017-12-16T03:39:25.075Z,15.37
2017-12-16T03:41:50.907Z,13.70
2017-12-16T03:44:16.764Z,9.73
2017-12-16T03:46:42.579Z,15.80
2017-12-16T03:49:08.429Z,14.80
2017-12-16T03:51:34.239Z,12.93
2017-12-16T03:54:00.046Z,19.37
2017-12-16T03:56:25.887Z,14.27
2017-12-16T03:58:51.774Z,16.50
2017-12-16T04:01:17.575Z,19.40
2017-12-16T04:03:43.391Z,19.10
2017-12-16T04:06:09.196Z,11.10
2017-12-16T04:08:35.050Z,11.40
2017-12-16T04:11:00.875Z,13.33
2017-12-16T04:13:26.704Z,10.80
2017-12-16T04:15:52.535Z,12.30
2017-12-16T04:18:18.342Z,8.97
2017-12-16T04:20:44.147Z,19.40
2017-12-16T04:23:09.968Z,13.50
2017-12-16T04:25:35.785Z,13.80
2017-12-16T04:28:01.590Z,11.50
2017-12-16T04:30:27.424Z,15.07
2017-12-16T04:32:53.260Z,6.97
2017-12-16T04:35:19.075Z,12.70
2017-12-16T04:37:45.503Z,19.37
2017-12-16T04:40:11.312Z,9.52
2017-12-16T04:42:37.131Z,10.23
2017-12-16T04:45:03.024Z,16.10
2017-12-16T04:47:28.839Z,13.60
2017-12-16T04:49:54.655Z,8.53
2017-12-16T04:52:20.488Z,10.13
2017-12-16T04:54:46.299Z,7.10
2017-12-16T04:57:12.112Z,10.17
2017-12-16T04:59:37.927Z,9.70
2017-12-16T05:02:03.743Z,8.10
2017-12-16T05:04:29.545Z,16.37
2017-12-16T05:06:55.387Z,11.77
2017-12-16T05:09:21.202Z,18.93
2017-12-16T05:11:47.011Z,15.50
2017-12-16T05:14:12.848Z,11.10
2017-12-16T05:16:38.678Z,15.60
2017-12-16T05:19:04.550Z,9.33
2017-12-16T05:21:30.363Z,13.17
2017-12-16T05:23:56.190Z,11.97
2017-12-16T05:26:22.027Z,17.77
2017-12-16T05:28:47.835Z,12.90
2017-12-16T05:31:13.644Z,7.87
2017-12-16T05:33:39.462Z,15.07
2017-12-16T05:36:05.279Z,13.30
2017-12-16T05:38:31.089Z,18.23
2017-12-16T05:40:56.977Z,11.67
2017-12-16T05:43:22.800Z,13.57
2017-12-16T05:45:48.620Z,12.37
2017-12-16T05:48:14.464Z,13.47
2017-12-16T05:50:40.295Z,9.43
2017-12-16T05:53:06.104Z,13.60
2017-12-16T05:55:32.238Z,6.67
2017-12-16T05:57:58.055Z,18.02
2017-12-16T06:00:23.909Z,13.70
2017-12-16T06:02:49.931Z,13.40
2017-12-16T06:05:15.736Z,11.95
2017-12-16T06:07:41.603Z,10.50
2017-12-16T06:10:07.442Z,10.57
2017-12-16T06:12:33.259Z,11.37
2017-12-16T06:14:59.077Z,14.97
2017-12-16T06:17:24.919Z,12.77
2017-12-16T06:19:50.754Z,12.97
2017-12-16T06:22:16.569Z,10.90
2017-12-16T06:24:42.412Z,18.57
2017-12-16T06:27:08.205Z,13.70
2017-12-16T06:29:34.023Z,15.33
2017-12-16T06:31:59.840Z,9.37
2017-12-16T06:34:25.652Z,13.07
2017-12-16T06:36:51.541Z,17.73
2017-12-16T06:39:17.343Z,10.87
2017-12-16T06:41:43.171Z,15.70
2017-12-16T06:44:09.233Z,16.57
2017-12-16T06:46:35.035Z,16.73
2017-12-16T06:49:00.840Z,17.40
2017-12-16T06:51:26.666Z,16.10
2017-12-16T06:53:52.466Z,21.07
2017-12-16T06:56:18.276Z,14.63
2017-12-16T06:58:44.095Z,14.50
2017-12-16T07:01:09.919Z,14.87
2017-12-16T07:03:35.746Z,17.00
2017-12-16T07:06:01.733Z,15.07
2017-12-16T07:08:27.543Z,16.10
2017-12-16T07:10:53.354Z,13.93
2017-12-16T07:13:19.342Z,13.30
2017-12-16T07:15:45.157Z,14.30
2017-12-16T07:18:10.982Z,13.87
2017-12-16T07:20:36.825Z,10.23
2017-12-16T07:23:02.643Z,13.17
2017-12-16T07:25:28.452Z,15.60
2017-12-16T07:27:54.265Z,12.23
2017-12-16T07:30:20.084Z,13.57
2017-12-16T07:32:46.195Z,10.00
2017-12-16T07:35:13.015Z,9.40
2017-12-16T07:37:38.812Z,12.50
2017-12-16T07:40:05.126Z,10.60
2017-12-16T07:42:30.931Z,12.87
2017-12-16T07:44:57.210Z,14.97
2017-12-16T07:47:25.243Z,14.65
2017-12-16T07:49:51.153Z,12.15
2017-12-16T07:52:17.687Z,10.43
2017-12-16T07:54:44.849Z,15.32
2017-12-16T07:57:10.717Z,13.75
2017-12-16T07:59:37.879Z,12.60
2017-12-16T08:02:03.735Z,10.25
2017-12-16T08:04:29.539Z,16.93
2017-12-16T08:06:55.338Z,11.80
2017-12-16T08:09:21.192Z,14.90
2017-12-16T08:11:47.009Z,13.97
2017-12-16T08:14:12.789Z,16.27
2017-12-16T08:16:38.597Z,17.40
2017-12-16T08:19:04.456Z,14.27
2017-12-16T08:21:30.267Z,18.17
2017-12-16T08:23:56.091Z,15.70
2017-12-16T08:26:21.907Z,11.50
2017-12-16T08:28:47.701Z,11.30
2017-12-16T08:31:13.538Z,13.33
2017-12-16T08:33:39.355Z,13.50
2017-12-16T08:36:05.147Z,10.50
2017-12-16T08:38:30.971Z,11.97
2017-12-16T08:40:56.847Z,16.77
2017-12-16T08:43:22.663Z,12.50
2017-12-16T08:45:48.672Z,14.80
2017-12-16T08:48:14.455Z,16.02
2017-12-16T08:50:40.250Z,10.07
2017-12-16T08:53:06.437Z,12.00
2017-12-16T08:55:32.224Z,10.95
2017-12-16T08:57:58.043Z,14.33
2017-12-16T09:00:24.092Z,14.50
2017-12-16T09:02:49.879Z,14.25
2017-12-16T09:05:15.699Z,11.13
2017-12-16T09:07:41.516Z,14.90
2017-12-16T09:10:07.309Z,9.27
2017-12-16T09:12:33.094Z,15.73
2017-12-16T09:14:58.887Z,11.53
2017-12-16T09:17:24.682Z,15.40
2017-12-16T09:19:50.478Z,8.40
2017-12-16T09:22:16.300Z,13.40
2017-12-16T09:24:42.104Z,12.10
2017-12-16T09:27:07.904Z,13.30
2017-12-16T09:29:33.735Z,10.57
2017-12-16T09:31:59.524Z,10.60
2017-12-16T09:34:25.307Z,11.47
2017-12-16T09:36:51.110Z,13.00
2017-12-16T09:39:16.891Z,11.30
2017-12-16T09:41:42.675Z,11.70
2017-12-16T09:44:09.444Z,11.27
2017-12-16T09:46:35.227Z,6.75
2017-12-16T09:49:01.021Z,3.07
2017-12-16T09:51:26.827Z,3.97
2017-12-16T09:53:52.656Z,7.17
2017-12-16T09:56:18.447Z,9.47
2017-12-16T09:58:44.243Z,8.83
2017-12-16T10:01:10.051Z,8.60
2017-12-16T10:03:36.091Z,5.67
2017-12-16T10:06:01.912Z,5.75
2017-12-16T10:08:27.771Z,6.90
2017-12-16T10:10:53.807Z,3.17
2017-12-16T10:13:19.610Z,4.80
2017-12-16T10:15:45.411Z,6.93
2017-12-16T10:18:11.501Z,5.53
2017-12-16T10:20:37.298Z,6.72
2017-12-16T10:23:03.147Z,7.73
2017-12-16T10:25:28.975Z,8.77
2017-12-16T10:27:54.781Z,5.30
2017-12-16T10:30:20.585Z,7.20
2017-12-16T10:32:46.419Z,6.00
2017-12-16T10:35:12.206Z,6.40
2017-12-16T10:37:38.024Z,4.00
2017-12-16T10:40:04.176Z,4.67
2017-12-16T10:42:29.971Z,5.15
2017-12-16T10:44:55.775Z,4.97
2017-12-16T10:47:21.588Z,4.53
2017-12-16T10:49:47.431Z,4.00
2017-12-16T10:52:13.233Z,3.80
2017-12-16T10:54:39.069Z,4.47
2017-12-16T10:57:04.875Z,4.20
2017-12-16T10:59:30.684Z,3.00
2017-12-16T11:01:56.495Z,2.13
2017-12-16T11:04:22.283Z,3.00
2017-12-16T11:06:48.083Z,5.13
2017-12-16T11:09:15.124Z,3.10
2017-12-16T11:11:42.439Z,3.50
2017-12-16T11:14:08.245Z,3.08
2017-12-16T11:16:34.070Z,3.13
2017-12-16T11:18:59.879Z,2.40
2017-12-16T11:21:25.672Z,2.83
2017-12-16T11:23:51.475Z,3.57
2017-12-16T11:26:17.298Z,1.90
2017-12-16T11:28:43.118Z,2.60
2017-12-16T11:31:08.958Z,11.53
2017-12-16T11:33:34.784Z,3.03
2017-12-16T11:36:00.966Z,1.53
2017-12-16T11:38:27.099Z,2.50
2017-12-16T11:40:52.883Z,2.37
2017-12-16T11:43:18.687Z,2.57
2017-12-16T11:45:44.507Z,2.40
2017-12-16T11:48:10.335Z,2.53
2017-12-16T11:50:36.145Z,4.40
2017-12-16T11:53:02.824Z,14.43
2017-12-16T11:55:28.665Z,3.05
2017-12-16T11:57:54.454Z,1.80
2017-12-16T12:00:20.456Z,2.03
2017-12-16T12:02:46.287Z,1.20
2017-12-16T12:05:12.163Z,2.80
2017-12-16T12:07:37.995Z,2.50
2017-12-16T12:10:03.791Z,46.03
2017-12-16T12:12:29.842Z,4.60
2017-12-16T12:14:56.451Z,3.33
2017-12-16T12:17:22.257Z,2.65
2017-12-16T12:19:48.078Z,2.10
2017-12-16T12:22:13.896Z,2.67
2017-12-16T12:24:39.712Z,12.63
2017-12-16T12:27:05.710Z,2.27
2017-12-16T12:29:31.512Z,2.60
2017-12-16T12:31:57.309Z,2.03
2017-12-16T12:34:23.139Z,17.37
2017-12-16T12:36:48.994Z,1.60
2017-12-16T12:39:14.849Z,1.63
2017-12-16T12:41:40.655Z,3.40
2017-12-16T12:44:06.447Z,1.57
2017-12-16T12:46:32.257Z,2.47
2017-12-16T12:48:58.288Z,1.50
2017-12-16T12:51:24.354Z,1.67
2017-12-16T12:53:50.175Z,6.87
2017-12-16T12:56:16.147Z,2.10
2017-12-16T12:58:41.957Z,0.80
2017-12-16T13:01:07.748Z,1.03
2017-12-16T13:03:33.571Z,1.17
2017-12-16T13:05:59.385Z,1.47
2017-12-16T13:08:25.179Z,1.10
2017-12-16T13:10:51.259Z,0.80
2017-12-16T13:13:17.050Z,0.70
2017-12-16T13:15:42.841Z,1.10
2017-12-16T13:18:08.688Z,0.93
2017-12-16T13:20:34.479Z,0.77
2017-12-16T13:23:00.275Z,1.20
2017-12-16T13:25:26.071Z,0.60
2017-12-16T13:27:52.088Z,1.57
2017-12-16T13:30:17.888Z,0.73
2017-12-16T13:32:43.691Z,1.30
2017-12-16T13:35:10.318Z,0.90
2017-12-16T13:37:36.118Z,1.20
2017-12-16T13:40:01.917Z,2.43
2017-12-16T13:42:27.743Z,1.60
2017-12-16T13:44:53.560Z,1.27
2017-12-16T13:47:19.367Z,1.60
2017-12-16T13:49:45.476Z,0.97
2017-12-16T13:52:11.499Z,1.80
2017-12-16T13:54:37.282Z,0.93
2017-12-16T13:57:03.093Z,1.77
2017-12-16T13:59:28.882Z,7.30
2017-12-16T14:01:55.014Z,1.30
2017-12-16T14:04:20.824Z,2.75
2017-12-16T14:06:46.627Z,1.80
2017-12-16T14:09:12.462Z,2.37
2017-12-16T14:11:38.268Z,30.63
2017-12-16T14:14:04.059Z,0.97
2017-12-16T14:16:29.871Z,5.60
2017-12-16T14:18:55.668Z,4.40
2017-12-16T14:21:21.459Z,1.10
2017-12-16T14:23:47.280Z,2.37
2017-12-16T14:26:13.071Z,1.40
2017-12-16T14:28:38.859Z,2.60
2017-12-16T14:31:04.680Z,2.37
2017-12-16T14:33:30.471Z,1.13
2017-12-16T14:35:56.272Z,1.10
2017-12-16T14:38:22.100Z,1.43
2017-12-16T14:40:47.928Z,1.60
2017-12-16T14:43:13.748Z,1.60
2017-12-16T14:45:39.809Z,1.80
2017-12-16T14:48:05.620Z,1.27
2017-12-16T14:50:31.428Z,2.23
2017-12-16T14:52:58.090Z,1.50
2017-12-16T14:55:23.883Z,1.67
2017-12-16T14:57:49.665Z,1.10
2017-12-16T15:00:15.487Z,3.23
2017-12-16T15:02:41.278Z,1.70
2017-12-16T15:05:07.080Z,1.90
2017-12-16T15:07:33.925Z,1.93
2017-12-16T15:09:59.710Z,1.70
2017-12-16T15:12:25.515Z,1.63
2017-12-16T15:14:51.334Z,2.10
2017-12-16T15:17:17.129Z,7.87
2017-12-16T15:19:42.932Z,1.97
2017-12-16T15:22:09.036Z,2.07
2017-12-16T15:24:34.836Z,1.92
2017-12-16T15:27:00.643Z,1.50
2017-12-16T15:29:26.435Z,1.50
2017-12-16T15:31:52.712Z,2.20
2017-12-16T15:34:18.736Z,1.90
2017-12-16T15:36:44.536Z,1.40
2017-12-16T15:39:10.339Z,1.80
2017-12-16T15:41:36.176Z,1.53
2017-12-16T15:44:02.000Z,1.43
2017-12-16T15:46:27.807Z,2.50
2017-12-16T15:48:53.632Z,2.07
2017-12-16T15:51:19.448Z,2.30
2017-12-16T15:53:45.264Z,1.80
2017-12-16T15:56:11.312Z,3.73
2017-12-16T15:58:37.111Z,1.80
2017-12-16T16:01:02.975Z,2.50
2017-12-16T16:03:28.812Z,2.80
2017-12-16T16:05:54.623Z,12.27
2017-12-16T16:08:20.451Z,1.73
2017-12-16T16:10:46.264Z,2.60
2017-12-16T16:13:12.082Z,2.30
2017-12-16T16:15:37.884Z,1.97
2017-12-16T16:18:03.723Z,2.10
2017-12-16T16:20:29.597Z,1.90
2017-12-16T16:22:55.412Z,2.40
2017-12-16T16:25:22.052Z,2.10
2017-12-16T16:27:47.895Z,2.70
2017-12-16T16:30:14.009Z,2.70
2017-12-16T16:32:39.941Z,3.03
2017-12-16T16:35:05.748Z,2.87
2017-12-16T16:37:31.569Z,2.20
2017-12-16T16:39:57.400Z,2.50
2017-12-16T16:42:23.208Z,3.93
2017-12-16T16:44:49.421Z,3.50
2017-12-16T16:47:15.215Z,1.95
2017-12-16T16:49:41.072Z,1.60
2017-12-16T16:52:07.071Z,1.40
2017-12-16T16:54:32.880Z,2.30
2017-12-16T16:56:58.684Z,2.80
2017-12-16T16:59:25.460Z,1.70
2017-12-16T17:01:51.255Z,2.12
2017-12-16T17:04:17.084Z,2.27
2017-12-16T17:06:43.824Z,2.27
2017-12-16T17:09:09.629Z,1.33
2017-12-16T17:11:35.451Z,3.33
2017-12-16T17:14:01.304Z,2.30
2017-12-16T17:16:27.159Z,1.53
2017-12-16T17:18:52.971Z,3.10
2017-12-16T17:21:18.816Z,1.63
2017-12-16T17:23:44.620Z,2.80
2017-12-16T17:26:10.785Z,2.63
2017-12-16T17:28:36.608Z,2.33
2017-12-16T17:31:02.416Z,3.13
2017-12-16T17:33:28.234Z,1.63
2017-12-16T17:35:54.059Z,2.77
2017-12-16T17:38:19.870Z,2.20
2017-12-16T17:40:45.929Z,3.70
2017-12-16T17:43:11.736Z,2.92
2017-12-16T17:45:37.556Z,2.30
2017-12-16T17:48:03.408Z,1.27
2017-12-16T17:50:29.219Z,4.90
2017-12-16T17:52:55.011Z,3.10
2017-12-16T17:55:20.840Z,4.17
2017-12-16T17:57:46.735Z,3.50
2017-12-16T18:00:12.535Z,2.93
2017-12-16T18:02:38.411Z,5.80
2017-12-16T18:05:04.178Z,3.33
2017-12-16T18:07:29.984Z,7.13
2017-12-16T18:09:55.861Z,3.40
2017-12-16T18:12:21.659Z,3.30
2017-12-16T18:14:47.511Z,3.03
2017-12-16T18:17:13.577Z,3.00
2017-12-16T18:19:39.372Z,3.00
2017-12-16T18:22:05.180Z,3.20
2017-12-16T18:24:31.126Z,3.33
2017-12-16T18:26:56.953Z,1.97
2017-12-16T18:29:22.772Z,3.00
2017-12-16T18:31:48.617Z,3.07
2017-12-16T18:34:14.447Z,2.17
2017-12-16T18:36:40.271Z,2.80
2017-12-16T18:39:06.095Z,2.40
2017-12-16T18:41:31.914Z,3.07
2017-12-16T18:43:57.715Z,4.33
2017-12-16T18:46:23.708Z,1.60
2017-12-16T18:48:49.511Z,2.72
2017-12-16T18:51:15.328Z,1.70
2017-12-16T18:53:41.160Z,1.73
2017-12-16T18:56:06.972Z,2.43
2017-12-16T18:58:32.823Z,1.90
2017-12-16T19:00:59.380Z,2.23
2017-12-16T19:03:25.177Z,3.28
2017-12-16T19:05:51.030Z,1.80
2017-12-16T19:08:16.860Z,1.50
2017-12-16T19:10:42.671Z,1.93
2017-12-16T19:13:08.483Z,2.70
2017-12-16T19:15:34.650Z,2.40
2017-12-16T19:18:00.443Z,1.05
2017-12-16T19:20:26.267Z,1.80
2017-12-16T19:22:52.116Z,2.20
2017-12-16T19:25:17.948Z,1.37
2017-12-16T19:27:43.755Z,2.20
2017-12-16T19:30:09.567Z,18.63
2017-12-16T19:32:35.413Z,2.13
2017-12-16T19:35:01.231Z,1.50
2017-12-16T19:37:27.032Z,2.13
2017-12-16T19:39:52.869Z,49.57
2017-12-16T19:42:18.674Z,0.67
2017-12-16T19:44:44.490Z,0.67
2017-12-16T19:47:10.319Z,0.87
2017-12-16T19:49:36.123Z,0.93
2017-12-16T19:52:01.939Z,0.90
2017-12-16T19:54:27.784Z,1.20
2017-12-16T19:56:53.610Z,1.50
2017-12-16T19:59:19.439Z,1.20
2017-12-16T20:01:45.239Z,1.50
2017-12-16T20:04:11.027Z,1.17
2017-12-16T20:06:36.888Z,0.97
2017-12-16T20:09:02.717Z,1.63
2017-12-16T20:11:28.523Z,1.70
2017-12-16T20:13:54.347Z,2.20
2017-12-16T20:16:20.159Z,1.93
2017-12-16T20:18:45.964Z,2.60
2017-12-16T20:21:11.783Z,3.20
2017-12-16T20:23:37.576Z,1.53
2017-12-16T20:26:03.388Z,1.70
2017-12-16T20:28:29.213Z,1.07
2017-12-16T20:30:55.016Z,1.53
2017-12-16T20:33:20.825Z,2.30
2017-12-16T20:35:46.968Z,1.47
2017-12-16T20:38:12.777Z,2.10
2017-12-16T20:40:38.572Z,1.57
2017-12-16T20:43:04.381Z,0.83
2017-12-16T20:45:31.017Z,2.20
2017-12-16T20:47:56.870Z,2.42
2017-12-16T20:50:22.683Z,1.83
2017-12-16T20:52:48.524Z,2.43
2017-12-16T20:55:14.350Z,2.10
2017-12-16T20:57:40.142Z,2.40
2017-12-16T21:00:06.279Z,1.77
2017-12-16T21:02:32.090Z,2.17
2017-12-16T21:04:57.895Z,1.40
2017-12-16T21:07:23.724Z,1.40
2017-12-16T21:09:49.524Z,2.47
2017-12-16T21:12:15.301Z,3.47
2017-12-16T21:14:41.120Z,2.00
2017-12-16T21:17:06.919Z,2.03
2017-12-16T21:19:32.703Z,3.00
2017-12-16T21:21:58.507Z,2.50
2017-12-16T21:24:24.301Z,3.57
2017-12-16T21:26:50.269Z,3.07
2017-12-16T21:29:16.059Z,3.10
2017-12-16T21:31:41.849Z,3.10
2017-12-16T21:34:07.656Z,3.10
2017-12-16T21:36:33.523Z,2.83
2017-12-16T21:38:59.321Z,3.23
2017-12-16T21:41:25.143Z,3.80
2017-12-16T21:43:50.985Z,3.20
2017-12-16T21:46:16.788Z,2.37
2017-12-16T21:48:42.639Z,3.90
2017-12-16T21:51:08.452Z,1.70
2017-12-16T21:53:34.248Z,4.80
2017-12-16T21:56:00.056Z,3.37
2017-12-16T21:58:25.883Z,5.13
2017-12-16T22:00:51.692Z,7.53
2017-12-16T22:03:17.544Z,2.90
2017-12-16T22:05:43.347Z,3.60
2017-12-16T22:08:09.144Z,3.80
2017-12-16T22:10:34.962Z,3.97
2017-12-16T22:13:00.766Z,3.70
2017-12-16T22:15:26.567Z,3.30
2017-12-16T22:17:52.366Z,2.80
2017-12-16T22:20:18.155Z,6.07
2017-12-16T22:22:43.952Z,3.90
2017-12-16T22:25:10.120Z,5.33
2017-12-16T22:27:35.904Z,3.20
2017-12-16T22:30:01.717Z,4.90
2017-12-16T22:32:27.631Z,4.40
2017-12-16T22:34:53.367Z,4.60
2017-12-16T22:37:19.155Z,5.20
2017-12-16T22:39:44.978Z,5.40
2017-12-16T22:42:10.804Z,5.90
2017-12-16T22:44:36.603Z,6.40
2017-12-16T22:47:02.685Z,7.13
2017-12-16T22:49:28.492Z,4.05
2017-12-16T22:51:54.307Z,6.20
2017-12-16T22:56:52.755Z,3.67
2017-12-16T22:59:18.557Z,3.97
2017-12-16T23:01:44.403Z,4.23
2017-12-16T23:04:10.231Z,4.90
2017-12-16T23:06:36.028Z,4.80
2017-12-16T23:09:01.921Z,3.70
2017-12-16T23:11:27.741Z,3.00
2017-12-16T23:13:53.561Z,5.70
2017-12-16T23:16:19.420Z,4.47
2017-12-16T23:18:45.237Z,3.23
2017-12-16T23:21:11.069Z,4.70
2017-12-16T23:23:37.852Z,5.33
2017-12-16T23:26:03.667Z,2.95
2017-12-16T23:28:29.480Z,4.53
2017-12-16T23:30:55.328Z,3.50
2017-12-16T23:33:21.144Z,8.30
2017-12-16T23:35:46.944Z,3.40
2017-12-16T23:38:12.764Z,5.50
2017-12-16T23:40:38.596Z,5.43
2017-12-16T23:43:04.412Z,2.87
2017-12-16T23:45:30.403Z,4.20
2017-12-16T23:47:56.224Z,5.68
2017-12-16T23:50:22.030Z,3.70
2017-12-16T23:52:47.852Z,4.00
2017-12-16T23:55:13.666Z,4.63
2017-12-16T23:57:39.481Z,5.37
